sensor_id;sensor_type;location;lat;lon;timestamp;temperature;humidity
59855;DHT22;45732;52.850;6.896;2022-10-26T00:02:17;11.40;99.90
59855;DHT22;45732;52.850;6.896;2022-10-26T00:04:43;11.30;99.90
59855;DHT22;45732;52.850;6.896;2022-10-26T00:07:09;11.30;99.90
59855;DHT22;45732;52.850;6.896;2022-10-26T00:09:34;11.20;99.90
59855;DHT22;45732;52.850;6.896;2022-10-26T00:12:01;11.20;99.90
59855;DHT22;45732;52.850;6.896;2022-10-26T00:14:27;11.10;99.90
59855;DHT22;45732;52.850;6.896;2022-10-26T00:16:52;11.00;99.90
59855;DHT22;45732;52.850;6.896;2022-10-26T00:19:18;11.00;99.90
59855;DHT22;45732;52.850;6.896;2022-10-26T00:21:44;10.90;99.90
59855;DHT22;45732;52.850;6.896;2022-10-26T00:24:10;10.90;99.90
59855;DHT22;45732;52.850;6.896;2022-10-26T00:26:37;10.90;99.90
59855;DHT22;45732;52.850;6.896;2022-10-26T00:29:03;10.90;99.90
59855;DHT22;45732;52.850;6.896;2022-10-26T00:31:29;10.80;99.90
59855;DHT22;45732;52.850;6.896;2022-10-26T00:33:55;10.80;99.90
59855;DHT22;45732;52.850;6.896;2022-10-26T00:36:23;10.70;99.90
59855;DHT22;45732;52.850;6.896;2022-10-26T00:38:51;10.80;99.90
59855;DHT22;45732;52.850;6.896;2022-10-26T00:41:18;10.80;99.90
59855;DHT22;45732;52.850;6.896;2022-10-26T00:43:45;10.90;99.90
59855;DHT22;45732;52.850;6.896;2022-10-26T00:46:16;10.80;99.90
59855;DHT22;45732;52.850;6.896;2022-10-26T00:48:46;10.90;99.90
59855;DHT22;45732;52.850;6.896;2022-10-26T00:51:26;10.90;99.90
59855;DHT22;45732;52.850;6.896;2022-10-26T00:53:55;10.90;99.90
59855;DHT22;45732;52.850;6.896;2022-10-26T00:56:21;10.90;99.90
59855;DHT22;45732;52.850;6.896;2022-10-26T00:58:47;10.90;99.90
59855;DHT22;45732;52.850;6.896;2022-10-26T01:01:13;10.90;99.90
59855;DHT22;45732;52.850;6.896;2022-10-26T01:03:39;10.90;99.90
59855;DHT22;45732;52.850;6.896;2022-10-26T01:06:05;10.90;99.90
59855;DHT22;45732;52.850;6.896;2022-10-26T01:08:31;10.80;99.90
59855;DHT22;45732;52.850;6.896;2022-10-26T01:10:58;10.80;99.90
59855;DHT22;45732;52.850;6.896;2022-10-26T01:13:27;10.80;99.90
59855;DHT22;45732;52.850;6.896;2022-10-26T01:16:16;10.80;99.90
59855;DHT22;45732;52.850;6.896;2022-10-26T01:19:10;10.70;99.90
59855;DHT22;45732;52.850;6.896;2022-10-26T01:24:53;10.70;99.90
59855;DHT22;45732;52.850;6.896;2022-10-26T01:27:27;10.70;99.90
59855;DHT22;45732;52.850;6.896;2022-10-26T01:38:10;10.50;99.90
59855;DHT22;45732;52.850;6.896;2022-10-26T01:43:17;10.60;99.90
59855;DHT22;45732;52.850;6.896;2022-10-26T01:45:46;10.60;99.90
59855;DHT22;45732;52.850;6.896;2022-10-26T01:48:17;10.60;99.90
59855;DHT22;45732;52.850;6.896;2022-10-26T01:50:45;10.60;99.90
59855;DHT22;45732;52.850;6.896;2022-10-26T01:53:15;10.60;99.90
59855;DHT22;45732;52.850;6.896;2022-10-26T01:55:51;10.60;99.90
59855;DHT22;45732;52.850;6.896;2022-10-26T02:01:16;10.60;99.90
59855;DHT22;45732;52.850;6.896;2022-10-26T02:13:02;10.50;99.90
59855;DHT22;45732;52.850;6.896;2022-10-26T02:20:40;10.50;99.90
59855;DHT22;45732;52.850;6.896;2022-10-26T02:23:09;10.50;99.90
59855;DHT22;45732;52.850;6.896;2022-10-26T02:25:39;10.50;99.90
59855;DHT22;45732;52.850;6.896;2022-10-26T02:28:11;10.50;99.90
59855;DHT22;45732;52.850;6.896;2022-10-26T02:30:39;10.50;99.90
59855;DHT22;45732;52.850;6.896;2022-10-26T02:33:08;10.50;99.90
59855;DHT22;45732;52.850;6.896;2022-10-26T02:35:36;10.50;99.90
59855;DHT22;45732;52.850;6.896;2022-10-26T02:38:07;10.50;99.90
59855;DHT22;45732;52.850;6.896;2022-10-26T02:40:34;10.50;99.90
59855;DHT22;45732;52.850;6.896;2022-10-26T02:43:06;10.60;99.90
59855;DHT22;45732;52.850;6.896;2022-10-26T02:45:38;10.50;99.90
59855;DHT22;45732;52.850;6.896;2022-10-26T02:48:06;10.60;99.90
59855;DHT22;45732;52.850;6.896;2022-10-26T02:51:04;10.60;99.90
59855;DHT22;45732;52.850;6.896;2022-10-26T02:53:52;10.70;99.90
59855;DHT22;45732;52.850;6.896;2022-10-26T02:56:32;10.70;99.90
59855;DHT22;45732;52.850;6.896;2022-10-26T02:59:03;10.60;99.90
59855;DHT22;45732;52.850;6.896;2022-10-26T03:01:31;10.70;99.90
59855;DHT22;45732;52.850;6.896;2022-10-26T03:03:58;10.70;99.90
59855;DHT22;45732;52.850;6.896;2022-10-26T03:06:25;10.70;99.90
59855;DHT22;45732;52.850;6.896;2022-10-26T03:08:50;10.70;99.90
59855;DHT22;45732;52.850;6.896;2022-10-26T03:11:17;10.70;99.90
59855;DHT22;45732;52.850;6.896;2022-10-26T03:13:43;10.60;99.90
59855;DHT22;45732;52.850;6.896;2022-10-26T03:16:09;10.60;99.90
59855;DHT22;45732;52.850;6.896;2022-10-26T03:18:35;10.50;99.90
59855;DHT22;45732;52.850;6.896;2022-10-26T03:21:00;10.50;99.90
59855;DHT22;45732;52.850;6.896;2022-10-26T03:23:26;10.60;99.90
59855;DHT22;45732;52.850;6.896;2022-10-26T03:25:56;10.50;99.90
59855;DHT22;45732;52.850;6.896;2022-10-26T03:28:22;10.60;99.90
59855;DHT22;45732;52.850;6.896;2022-10-26T03:30:47;10.60;99.90
59855;DHT22;45732;52.850;6.896;2022-10-26T03:33:13;10.60;99.90
59855;DHT22;45732;52.850;6.896;2022-10-26T03:35:39;10.60;99.90
59855;DHT22;45732;52.850;6.896;2022-10-26T03:38:05;10.60;99.90
59855;DHT22;45732;52.850;6.896;2022-10-26T03:40:30;10.60;99.90
59855;DHT22;45732;52.850;6.896;2022-10-26T03:42:56;10.60;99.90
59855;DHT22;45732;52.850;6.896;2022-10-26T03:45:22;10.50;99.90
59855;DHT22;45732;52.850;6.896;2022-10-26T03:47:48;10.50;99.90
59855;DHT22;45732;52.850;6.896;2022-10-26T03:50:16;10.50;99.90
59855;DHT22;45732;52.850;6.896;2022-10-26T03:52:43;10.50;99.90
59855;DHT22;45732;52.850;6.896;2022-10-26T03:55:09;10.40;99.90
59855;DHT22;45732;52.850;6.896;2022-10-26T03:57:42;10.40;99.90
59855;DHT22;45732;52.850;6.896;2022-10-26T04:00:09;10.40;99.90
59855;DHT22;45732;52.850;6.896;2022-10-26T04:02:35;10.40;99.90
59855;DHT22;45732;52.850;6.896;2022-10-26T04:05:01;10.40;99.90
59855;DHT22;45732;52.850;6.896;2022-10-26T04:07:26;10.40;99.90
59855;DHT22;45732;52.850;6.896;2022-10-26T04:09:52;10.40;99.90
59855;DHT22;45732;52.850;6.896;2022-10-26T04:12:18;10.40;99.90
59855;DHT22;45732;52.850;6.896;2022-10-26T04:14:43;10.30;99.90
59855;DHT22;45732;52.850;6.896;2022-10-26T04:17:09;10.40;99.90
59855;DHT22;45732;52.850;6.896;2022-10-26T04:19:35;10.40;99.90
59855;DHT22;45732;52.850;6.896;2022-10-26T04:22:00;10.40;99.90
59855;DHT22;45732;52.850;6.896;2022-10-26T04:24:26;10.40;99.90
59855;DHT22;45732;52.850;6.896;2022-10-26T04:26:52;10.40;99.90
59855;DHT22;45732;52.850;6.896;2022-10-26T04:29:17;10.40;99.90
59855;DHT22;45732;52.850;6.896;2022-10-26T04:31:43;10.30;99.90
59855;DHT22;45732;52.850;6.896;2022-10-26T04:34:09;10.30;99.90
59855;DHT22;45732;52.850;6.896;2022-10-26T04:36:34;10.40;99.90
59855;DHT22;45732;52.850;6.896;2022-10-26T04:39:00;10.40;99.90
59855;DHT22;45732;52.850;6.896;2022-10-26T04:41:26;10.40;99.90
59855;DHT22;45732;52.850;6.896;2022-10-26T04:43:52;10.50;99.90
59855;DHT22;45732;52.850;6.896;2022-10-26T04:46:17;10.50;99.90
59855;DHT22;45732;52.850;6.896;2022-10-26T04:48:43;10.50;99.90
59855;DHT22;45732;52.850;6.896;2022-10-26T04:51:09;10.50;99.90
59855;DHT22;45732;52.850;6.896;2022-10-26T04:53:34;10.50;99.90
59855;DHT22;45732;52.850;6.896;2022-10-26T04:56:00;10.50;99.90
59855;DHT22;45732;52.850;6.896;2022-10-26T04:58:27;10.50;99.90
59855;DHT22;45732;52.850;6.896;2022-10-26T05:00:53;10.50;99.90
59855;DHT22;45732;52.850;6.896;2022-10-26T05:03:19;10.60;99.90
59855;DHT22;45732;52.850;6.896;2022-10-26T05:05:45;10.60;99.90
59855;DHT22;45732;52.850;6.896;2022-10-26T05:08:13;10.60;99.90
59855;DHT22;45732;52.850;6.896;2022-10-26T05:10:38;10.70;99.90
59855;DHT22;45732;52.850;6.896;2022-10-26T05:13:04;10.70;99.90
59855;DHT22;45732;52.850;6.896;2022-10-26T05:15:30;10.70;99.90
59855;DHT22;45732;52.850;6.896;2022-10-26T05:18:00;10.70;99.90
59855;DHT22;45732;52.850;6.896;2022-10-26T05:20:29;10.70;99.90
59855;DHT22;45732;52.850;6.896;2022-10-26T05:22:56;10.70;99.90
59855;DHT22;45732;52.850;6.896;2022-10-26T05:25:23;10.70;99.90
59855;DHT22;45732;52.850;6.896;2022-10-26T05:27:48;10.70;99.90
59855;DHT22;45732;52.850;6.896;2022-10-26T05:30:14;10.70;99.90
59855;DHT22;45732;52.850;6.896;2022-10-26T05:32:40;10.70;99.90
59855;DHT22;45732;52.850;6.896;2022-10-26T05:35:06;10.80;99.90
59855;DHT22;45732;52.850;6.896;2022-10-26T05:37:32;10.80;99.90
59855;DHT22;45732;52.850;6.896;2022-10-26T05:39:58;10.70;99.90
59855;DHT22;45732;52.850;6.896;2022-10-26T05:42:23;10.70;99.90
59855;DHT22;45732;52.850;6.896;2022-10-26T05:44:50;10.80;99.90
59855;DHT22;45732;52.850;6.896;2022-10-26T05:47:15;10.80;99.90
59855;DHT22;45732;52.850;6.896;2022-10-26T05:49:41;10.80;99.90
59855;DHT22;45732;52.850;6.896;2022-10-26T05:52:07;10.80;99.90
59855;DHT22;45732;52.850;6.896;2022-10-26T05:54:32;10.80;99.90
59855;DHT22;45732;52.850;6.896;2022-10-26T05:56:58;10.80;99.90
59855;DHT22;45732;52.850;6.896;2022-10-26T05:59:24;10.80;99.90
59855;DHT22;45732;52.850;6.896;2022-10-26T06:02:09;10.80;99.90
59855;DHT22;45732;52.850;6.896;2022-10-26T06:04:43;10.80;99.90
59855;DHT22;45732;52.850;6.896;2022-10-26T06:07:17;10.90;99.90
59855;DHT22;45732;52.850;6.896;2022-10-26T06:09:44;10.90;99.90
59855;DHT22;45732;52.850;6.896;2022-10-26T06:12:11;10.90;99.90
59855;DHT22;45732;52.850;6.896;2022-10-26T06:14:38;10.90;99.90
59855;DHT22;45732;52.850;6.896;2022-10-26T06:25:08;10.90;99.90
59855;DHT22;45732;52.850;6.896;2022-10-26T06:27:51;10.80;99.90
59855;DHT22;45732;52.850;6.896;2022-10-26T06:30:18;10.80;99.90
59855;DHT22;45732;52.850;6.896;2022-10-26T06:32:48;10.80;99.90
59855;DHT22;45732;52.850;6.896;2022-10-26T06:35:26;10.80;99.90
59855;DHT22;45732;52.850;6.896;2022-10-26T06:37:59;10.80;99.90
59855;DHT22;45732;52.850;6.896;2022-10-26T06:40:26;10.90;99.90
59855;DHT22;45732;52.850;6.896;2022-10-26T06:42:55;10.90;99.90
59855;DHT22;45732;52.850;6.896;2022-10-26T06:45:21;11.00;99.90
59855;DHT22;45732;52.850;6.896;2022-10-26T06:47:56;11.00;99.90
59855;DHT22;45732;52.850;6.896;2022-10-26T06:50:51;11.00;99.90
59855;DHT22;45732;52.850;6.896;2022-10-26T06:55:58;11.00;99.90
59855;DHT22;45732;52.850;6.896;2022-10-26T06:58:27;11.10;99.90
59855;DHT22;45732;52.850;6.896;2022-10-26T07:00:54;11.10;99.90
59855;DHT22;45732;52.850;6.896;2022-10-26T07:03:20;11.10;99.90
59855;DHT22;45732;52.850;6.896;2022-10-26T07:05:47;11.10;99.90
59855;DHT22;45732;52.850;6.896;2022-10-26T07:08:12;11.10;99.90
59855;DHT22;45732;52.850;6.896;2022-10-26T07:10:38;11.10;99.90
59855;DHT22;45732;52.850;6.896;2022-10-26T07:13:05;11.10;99.90
59855;DHT22;45732;52.850;6.896;2022-10-26T07:15:31;11.10;99.90
59855;DHT22;45732;52.850;6.896;2022-10-26T07:17:57;11.10;99.90
59855;DHT22;45732;52.850;6.896;2022-10-26T07:20:23;11.10;99.90
59855;DHT22;45732;52.850;6.896;2022-10-26T07:22:53;11.10;99.90
59855;DHT22;45732;52.850;6.896;2022-10-26T07:25:19;11.10;99.90
59855;DHT22;45732;52.850;6.896;2022-10-26T07:27:45;11.10;99.90
59855;DHT22;45732;52.850;6.896;2022-10-26T07:30:12;11.20;99.90
59855;DHT22;45732;52.850;6.896;2022-10-26T07:32:37;11.20;99.90
59855;DHT22;45732;52.850;6.896;2022-10-26T07:35:03;11.20;99.90
59855;DHT22;45732;52.850;6.896;2022-10-26T07:37:29;11.20;99.90
59855;DHT22;45732;52.850;6.896;2022-10-26T07:39:55;11.20;99.90
59855;DHT22;45732;52.850;6.896;2022-10-26T07:42:21;11.30;99.90
59855;DHT22;45732;52.850;6.896;2022-10-26T07:44:47;11.30;99.90
59855;DHT22;45732;52.850;6.896;2022-10-26T07:47:12;11.40;99.90
59855;DHT22;45732;52.850;6.896;2022-10-26T07:49:38;11.40;99.90
59855;DHT22;45732;52.850;6.896;2022-10-26T07:52:04;11.50;99.90
59855;DHT22;45732;52.850;6.896;2022-10-26T07:54:30;11.50;99.90
59855;DHT22;45732;52.850;6.896;2022-10-26T07:56:56;11.60;99.90
59855;DHT22;45732;52.850;6.896;2022-10-26T07:59:22;11.70;99.90
59855;DHT22;45732;52.850;6.896;2022-10-26T08:01:48;11.80;99.90
59855;DHT22;45732;52.850;6.896;2022-10-26T08:04:14;11.80;99.90
59855;DHT22;45732;52.850;6.896;2022-10-26T08:06:40;11.90;99.90
59855;DHT22;45732;52.850;6.896;2022-10-26T08:09:06;12.00;99.90
59855;DHT22;45732;52.850;6.896;2022-10-26T08:11:32;12.00;99.90
59855;DHT22;45732;52.850;6.896;2022-10-26T08:13:57;12.10;99.90
59855;DHT22;45732;52.850;6.896;2022-10-26T08:16:23;12.10;99.90
59855;DHT22;45732;52.850;6.896;2022-10-26T08:18:50;12.20;99.90
59855;DHT22;45732;52.850;6.896;2022-10-26T08:21:16;12.20;99.90
59855;DHT22;45732;52.850;6.896;2022-10-26T08:23:42;12.30;99.90
59855;DHT22;45732;52.850;6.896;2022-10-26T08:26:09;12.30;99.90
59855;DHT22;45732;52.850;6.896;2022-10-26T08:28:38;12.30;99.90
59855;DHT22;45732;52.850;6.896;2022-10-26T08:31:05;12.30;99.90
59855;DHT22;45732;52.850;6.896;2022-10-26T08:33:31;12.30;99.90
59855;DHT22;45732;52.850;6.896;2022-10-26T08:35:58;12.40;99.90
59855;DHT22;45732;52.850;6.896;2022-10-26T08:38:24;12.40;99.90
59855;DHT22;45732;52.850;6.896;2022-10-26T08:40:50;12.50;99.90
59855;DHT22;45732;52.850;6.896;2022-10-26T08:43:33;12.60;99.90
59855;DHT22;45732;52.850;6.896;2022-10-26T08:46:08;12.60;99.90
59855;DHT22;45732;52.850;6.896;2022-10-26T08:48:38;12.70;99.90
59855;DHT22;45732;52.850;6.896;2022-10-26T08:51:16;12.80;99.90
59855;DHT22;45732;52.850;6.896;2022-10-26T08:53:49;12.90;99.90
59855;DHT22;45732;52.850;6.896;2022-10-26T08:56:34;13.00;99.90
59855;DHT22;45732;52.850;6.896;2022-10-26T09:01:44;13.00;99.90
59855;DHT22;45732;52.850;6.896;2022-10-26T09:04:11;13.00;99.90
59855;DHT22;45732;52.850;6.896;2022-10-26T09:06:50;13.00;99.90
59855;DHT22;45732;52.850;6.896;2022-10-26T09:12:52;13.10;99.90
59855;DHT22;45732;52.850;6.896;2022-10-26T09:27:06;13.70;99.90
59855;DHT22;45732;52.850;6.896;2022-10-26T09:29:40;13.80;99.90
59855;DHT22;45732;52.850;6.896;2022-10-26T09:32:16;13.90;99.90
59855;DHT22;45732;52.850;6.896;2022-10-26T09:35:43;14.00;99.90
59855;DHT22;45732;52.850;6.896;2022-10-26T09:37:39;14.10;99.90
59855;DHT22;45732;52.850;6.896;2022-10-26T09:40:33;14.20;99.90
59855;DHT22;45732;52.850;6.896;2022-10-26T09:43:11;14.30;99.90
59855;DHT22;45732;52.850;6.896;2022-10-26T09:45:43;14.40;99.90
59855;DHT22;45732;52.850;6.896;2022-10-26T09:48:13;14.50;99.90
59855;DHT22;45732;52.850;6.896;2022-10-26T09:50:44;14.50;99.90
59855;DHT22;45732;52.850;6.896;2022-10-26T09:53:11;14.50;99.90
59855;DHT22;45732;52.850;6.896;2022-10-26T09:55:46;14.60;99.90
59855;DHT22;45732;52.850;6.896;2022-10-26T09:58:27;14.70;99.90
59855;DHT22;45732;52.850;6.896;2022-10-26T10:00:54;14.70;99.90
59855;DHT22;45732;52.850;6.896;2022-10-26T10:03:29;14.80;99.90
59855;DHT22;45732;52.850;6.896;2022-10-26T10:06:21;14.80;99.90
59855;DHT22;45732;52.850;6.896;2022-10-26T10:09:17;14.90;99.90
59855;DHT22;45732;52.850;6.896;2022-10-26T10:11:50;14.90;99.90
59855;DHT22;45732;52.850;6.896;2022-10-26T10:15:12;15.00;99.90
59855;DHT22;45732;52.850;6.896;2022-10-26T10:17:20;14.90;99.90
59855;DHT22;45732;52.850;6.896;2022-10-26T10:19:47;15.00;99.90
59855;DHT22;45732;52.850;6.896;2022-10-26T10:24:58;14.90;99.90
59855;DHT22;45732;52.850;6.896;2022-10-26T10:27:25;15.00;99.90
59855;DHT22;45732;52.850;6.896;2022-10-26T10:29:53;15.00;99.90
59855;DHT22;45732;52.850;6.896;2022-10-26T10:32:28;15.10;99.90
59855;DHT22;45732;52.850;6.896;2022-10-26T10:34:59;15.10;99.90
59855;DHT22;45732;52.850;6.896;2022-10-26T10:37:30;15.10;99.90
59855;DHT22;45732;52.850;6.896;2022-10-26T10:39:57;15.10;99.90
59855;DHT22;45732;52.850;6.896;2022-10-26T10:42:29;15.20;99.90
59855;DHT22;45732;52.850;6.896;2022-10-26T10:44:56;15.30;99.90
59855;DHT22;45732;52.850;6.896;2022-10-26T10:47:30;15.30;99.90
59855;DHT22;45732;52.850;6.896;2022-10-26T10:50:01;15.40;99.90
59855;DHT22;45732;52.850;6.896;2022-10-26T10:52:30;15.50;99.90
59855;DHT22;45732;52.850;6.896;2022-10-26T11:00:20;15.60;99.90
59855;DHT22;45732;52.850;6.896;2022-10-26T11:02:56;15.70;99.90
59855;DHT22;45732;52.850;6.896;2022-10-26T11:08:11;15.70;99.90
59855;DHT22;45732;52.850;6.896;2022-10-26T11:10:46;15.80;99.90
59855;DHT22;45732;52.850;6.896;2022-10-26T11:13:19;15.90;99.90
59855;DHT22;45732;52.850;6.896;2022-10-26T11:15:49;15.90;99.90
59855;DHT22;45732;52.850;6.896;2022-10-26T11:18:35;15.90;99.90
59855;DHT22;45732;52.850;6.896;2022-10-26T11:21:10;16.00;99.90
59855;DHT22;45732;52.850;6.896;2022-10-26T11:23:49;16.00;99.90
59855;DHT22;45732;52.850;6.896;2022-10-26T11:26:53;16.10;99.90
59855;DHT22;45732;52.850;6.896;2022-10-26T11:31:52;16.20;99.90
59855;DHT22;45732;52.850;6.896;2022-10-26T11:34:32;16.20;99.90
59855;DHT22;45732;52.850;6.896;2022-10-26T11:37:26;16.20;99.90
59855;DHT22;45732;52.850;6.896;2022-10-26T11:40:27;16.40;99.90
59855;DHT22;45732;52.850;6.896;2022-10-26T11:43:13;16.40;99.90
59855;DHT22;45732;52.850;6.896;2022-10-26T11:45:57;16.40;99.90
59855;DHT22;45732;52.850;6.896;2022-10-26T11:51:46;16.50;99.90
59855;DHT22;45732;52.850;6.896;2022-10-26T11:54:20;16.50;99.90
59855;DHT22;45732;52.850;6.896;2022-10-26T11:56:50;16.50;99.90
59855;DHT22;45732;52.850;6.896;2022-10-26T11:59:23;16.60;99.90
59855;DHT22;45732;52.850;6.896;2022-10-26T12:01:52;16.60;99.90
59855;DHT22;45732;52.850;6.896;2022-10-26T12:04:21;16.60;99.90
59855;DHT22;45732;52.850;6.896;2022-10-26T12:06:49;16.60;99.90
59855;DHT22;45732;52.850;6.896;2022-10-26T12:09:26;16.70;99.90
59855;DHT22;45732;52.850;6.896;2022-10-26T12:12:08;16.70;99.90
59855;DHT22;45732;52.850;6.896;2022-10-26T12:14:45;16.70;99.90
59855;DHT22;45732;52.850;6.896;2022-10-26T12:17:48;16.80;99.90
59855;DHT22;45732;52.850;6.896;2022-10-26T12:22:40;16.80;99.90
59855;DHT22;45732;52.850;6.896;2022-10-26T12:35:35;16.90;99.90
59855;DHT22;45732;52.850;6.896;2022-10-26T12:43:39;17.00;99.90
59855;DHT22;45732;52.850;6.896;2022-10-26T12:48:44;17.00;99.90
59855;DHT22;45732;52.850;6.896;2022-10-26T13:07:41;17.30;99.90
59855;DHT22;45732;52.850;6.896;2022-10-26T13:17:55;17.50;99.90
59855;DHT22;45732;52.850;6.896;2022-10-26T13:20:22;17.50;99.90
59855;DHT22;45732;52.850;6.896;2022-10-26T13:22:48;17.50;99.90
59855;DHT22;45732;52.850;6.896;2022-10-26T13:25:25;17.50;99.90
59855;DHT22;45732;52.850;6.896;2022-10-26T13:28:04;17.50;99.90
59855;DHT22;45732;52.850;6.896;2022-10-26T13:30:43;17.40;99.90
59855;DHT22;45732;52.850;6.896;2022-10-26T13:33:20;17.40;99.90
59855;DHT22;45732;52.850;6.896;2022-10-26T13:35:49;17.40;99.90
59855;DHT22;45732;52.850;6.896;2022-10-26T13:38:19;17.30;99.90
59855;DHT22;45732;52.850;6.896;2022-10-26T13:40:46;17.40;99.90
59855;DHT22;45732;52.850;6.896;2022-10-26T13:43:21;17.40;99.90
59855;DHT22;45732;52.850;6.896;2022-10-26T13:45:55;17.40;99.90
59855;DHT22;45732;52.850;6.896;2022-10-26T13:50:58;17.50;99.90
59855;DHT22;45732;52.850;6.896;2022-10-26T13:53:46;17.50;99.90
59855;DHT22;45732;52.850;6.896;2022-10-26T13:56:29;17.50;99.90
59855;DHT22;45732;52.850;6.896;2022-10-26T13:59:00;17.50;99.90
59855;DHT22;45732;52.850;6.896;2022-10-26T14:01:28;17.60;99.90
59855;DHT22;45732;52.850;6.896;2022-10-26T14:03:55;17.60;99.90
59855;DHT22;45732;52.850;6.896;2022-10-26T14:06:23;17.70;99.90
59855;DHT22;45732;52.850;6.896;2022-10-26T14:08:51;17.70;99.90
59855;DHT22;45732;52.850;6.896;2022-10-26T14:11:21;17.70;99.90
59855;DHT22;45732;52.850;6.896;2022-10-26T14:13:49;17.60;99.90
59855;DHT22;45732;52.850;6.896;2022-10-26T14:16:19;17.60;99.90
59855;DHT22;45732;52.850;6.896;2022-10-26T14:18:46;17.50;99.90
59855;DHT22;45732;52.850;6.896;2022-10-26T14:21:18;17.50;99.90
59855;DHT22;45732;52.850;6.896;2022-10-26T14:23:49;17.50;99.90
59855;DHT22;45732;52.850;6.896;2022-10-26T14:28:49;17.60;99.90
59855;DHT22;45732;52.850;6.896;2022-10-26T14:33:46;17.80;99.90
59855;DHT22;45732;52.850;6.896;2022-10-26T14:36:12;17.80;99.90
59855;DHT22;45732;52.850;6.896;2022-10-26T14:38:44;17.80;99.90
59855;DHT22;45732;52.850;6.896;2022-10-26T14:41:12;17.70;99.90
59855;DHT22;45732;52.850;6.896;2022-10-26T14:43:40;17.70;99.90
59855;DHT22;45732;52.850;6.896;2022-10-26T14:46:10;17.70;99.90
59855;DHT22;45732;52.850;6.896;2022-10-26T14:48:38;17.70;99.90
59855;DHT22;45732;52.850;6.896;2022-10-26T14:51:29;17.60;99.90
59855;DHT22;45732;52.850;6.896;2022-10-26T14:53:59;17.60;99.90
59855;DHT22;45732;52.850;6.896;2022-10-26T15:01:53;17.40;99.90
59855;DHT22;45732;52.850;6.896;2022-10-26T15:04:58;17.40;99.90
59855;DHT22;45732;52.850;6.896;2022-10-26T15:07:34;17.30;99.90
59855;DHT22;45732;52.850;6.896;2022-10-26T15:10:00;17.30;99.90
59855;DHT22;45732;52.850;6.896;2022-10-26T15:12:30;17.20;99.90
59855;DHT22;45732;52.850;6.896;2022-10-26T15:17:40;17.20;99.90
59855;DHT22;45732;52.850;6.896;2022-10-26T15:20:13;17.20;99.90
59855;DHT22;45732;52.850;6.896;2022-10-26T15:22:41;17.20;99.90
59855;DHT22;45732;52.850;6.896;2022-10-26T15:25:16;17.10;99.90
59855;DHT22;45732;52.850;6.896;2022-10-26T15:27:42;17.10;99.90
59855;DHT22;45732;52.850;6.896;2022-10-26T15:30:28;17.10;99.90
59855;DHT22;45732;52.850;6.896;2022-10-26T15:32:54;17.00;99.90
59855;DHT22;45732;52.850;6.896;2022-10-26T15:35:30;17.00;99.90
59855;DHT22;45732;52.850;6.896;2022-10-26T15:37:57;16.90;99.90
59855;DHT22;45732;52.850;6.896;2022-10-26T15:40:24;16.90;99.90
59855;DHT22;45732;52.850;6.896;2022-10-26T15:42:52;16.90;99.90
59855;DHT22;45732;52.850;6.896;2022-10-26T15:45:26;16.90;99.90
59855;DHT22;45732;52.850;6.896;2022-10-26T15:47:54;16.90;99.90
59855;DHT22;45732;52.850;6.896;2022-10-26T15:50:23;16.80;99.90
59855;DHT22;45732;52.850;6.896;2022-10-26T15:52:55;16.80;99.90
59855;DHT22;45732;52.850;6.896;2022-10-26T15:55:23;16.80;99.90
59855;DHT22;45732;52.850;6.896;2022-10-26T15:57:49;16.70;99.90
59855;DHT22;45732;52.850;6.896;2022-10-26T16:00:16;16.70;99.90
59855;DHT22;45732;52.850;6.896;2022-10-26T16:02:43;16.70;99.90
59855;DHT22;45732;52.850;6.896;2022-10-26T16:05:11;16.60;99.90
59855;DHT22;45732;52.850;6.896;2022-10-26T16:07:37;16.50;99.90
59855;DHT22;45732;52.850;6.896;2022-10-26T16:10:04;16.50;99.90
59855;DHT22;45732;52.850;6.896;2022-10-26T16:12:30;16.50;99.90
59855;DHT22;45732;52.850;6.896;2022-10-26T16:14:55;16.40;99.90
59855;DHT22;45732;52.850;6.896;2022-10-26T16:17:21;16.40;99.90
59855;DHT22;45732;52.850;6.896;2022-10-26T16:19:47;16.40;99.90
59855;DHT22;45732;52.850;6.896;2022-10-26T16:22:12;16.40;99.90
59855;DHT22;45732;52.850;6.896;2022-10-26T16:24:38;16.40;99.90
59855;DHT22;45732;52.850;6.896;2022-10-26T16:27:04;16.40;99.90
59855;DHT22;45732;52.850;6.896;2022-10-26T16:29:30;16.40;99.90
59855;DHT22;45732;52.850;6.896;2022-10-26T16:31:56;16.30;99.90
59855;DHT22;45732;52.850;6.896;2022-10-26T16:34:21;16.30;99.90
59855;DHT22;45732;52.850;6.896;2022-10-26T16:36:47;16.30;99.90
59855;DHT22;45732;52.850;6.896;2022-10-26T16:39:13;16.30;99.90
59855;DHT22;45732;52.850;6.896;2022-10-26T16:41:38;16.20;99.90
59855;DHT22;45732;52.850;6.896;2022-10-26T16:44:04;16.20;99.90
59855;DHT22;45732;52.850;6.896;2022-10-26T16:46:30;16.20;99.90
59855;DHT22;45732;52.850;6.896;2022-10-26T16:48:56;16.20;99.90
59855;DHT22;45732;52.850;6.896;2022-10-26T16:51:23;16.20;99.90
59855;DHT22;45732;52.850;6.896;2022-10-26T16:53:52;16.20;99.90
59855;DHT22;45732;52.850;6.896;2022-10-26T16:56:20;16.10;99.90
59855;DHT22;45732;52.850;6.896;2022-10-26T16:58:46;16.10;99.90
59855;DHT22;45732;52.850;6.896;2022-10-26T17:01:13;16.10;99.90
59855;DHT22;45732;52.850;6.896;2022-10-26T17:03:46;16.10;99.90
59855;DHT22;45732;52.850;6.896;2022-10-26T17:06:12;16.20;99.90
59855;DHT22;45732;52.850;6.896;2022-10-26T17:08:38;16.20;99.90
59855;DHT22;45732;52.850;6.896;2022-10-26T17:11:16;16.20;99.90
59855;DHT22;45732;52.850;6.896;2022-10-26T17:13:43;16.20;99.90
59855;DHT22;45732;52.850;6.896;2022-10-26T17:16:17;16.20;99.90
59855;DHT22;45732;52.850;6.896;2022-10-26T17:18:44;16.20;99.90
59855;DHT22;45732;52.850;6.896;2022-10-26T17:21:11;16.20;99.90
59855;DHT22;45732;52.850;6.896;2022-10-26T17:23:37;16.20;99.90
59855;DHT22;45732;52.850;6.896;2022-10-26T17:26:07;16.20;99.90
59855;DHT22;45732;52.850;6.896;2022-10-26T17:28:34;16.20;99.90
59855;DHT22;45732;52.850;6.896;2022-10-26T17:31:07;16.20;99.90
59855;DHT22;45732;52.850;6.896;2022-10-26T17:33:34;16.20;99.90
59855;DHT22;45732;52.850;6.896;2022-10-26T17:36:01;16.10;99.90
59855;DHT22;45732;52.850;6.896;2022-10-26T17:38:30;16.10;99.90
59855;DHT22;45732;52.850;6.896;2022-10-26T17:40:59;16.00;99.90
59855;DHT22;45732;52.850;6.896;2022-10-26T17:43:28;16.00;99.90
59855;DHT22;45732;52.850;6.896;2022-10-26T17:45:57;16.00;99.90
59855;DHT22;45732;52.850;6.896;2022-10-26T17:48:23;16.00;99.90
59855;DHT22;45732;52.850;6.896;2022-10-26T17:50:50;15.90;99.90
59855;DHT22;45732;52.850;6.896;2022-10-26T17:53:16;15.90;99.90
59855;DHT22;45732;52.850;6.896;2022-10-26T17:55:42;15.90;99.90
59855;DHT22;45732;52.850;6.896;2022-10-26T17:58:07;15.80;99.90
59855;DHT22;45732;52.850;6.896;2022-10-26T18:00:33;15.80;99.90
59855;DHT22;45732;52.850;6.896;2022-10-26T18:02:59;15.80;99.90
59855;DHT22;45732;52.850;6.896;2022-10-26T18:05:25;15.70;99.90